sensor_id;sensor_type;location;lat;lon;timestamp;P1;durP1;ratioP1;P2;durP2;ratioP2
13683;SDS011;6914;53.552;9.908;2023-02-28T00:01:22;16.57;;;2.63;;
13683;SDS011;6914;53.552;9.908;2023-02-28T00:03:49;3.60;;;1.70;;
13683;SDS011;6914;53.552;9.908;2023-02-28T00:06:16;2.43;;;2.20;;
13683;SDS011;6914;53.552;9.908;2023-02-28T00:08:48;2.10;;;1.83;;
13683;SDS011;6914;53.552;9.908;2023-02-28T00:11:16;4.67;;;2.03;;
13683;SDS011;6914;53.552;9.908;2023-02-28T00:13:54;6.70;;;1.93;;
13683;SDS011;6914;53.552;9.908;2023-02-28T00:16:21;4.00;;;2.73;;
13683;SDS011;6914;53.552;9.908;2023-02-28T00:18:49;3.00;;;2.00;;
13683;SDS011;6914;53.552;9.908;2023-02-28T00:21:18;5.43;;;2.23;;
13683;SDS011;6914;53.552;9.908;2023-02-28T00:23:45;6.53;;;2.53;;
13683;SDS011;6914;53.552;9.908;2023-02-28T00:26:14;1.87;;;1.50;;
13683;SDS011;6914;53.552;9.908;2023-02-28T00:28:41;3.07;;;2.33;;
13683;SDS011;6914;53.552;9.908;2023-02-28T00:31:09;1.60;;;1.50;;
13683;SDS011;6914;53.552;9.908;2023-02-28T00:33:36;4.30;;;1.87;;
13683;SDS011;6914;53.552;9.908;2023-02-28T00:36:04;2.70;;;2.50;;
13683;SDS011;6914;53.552;9.908;2023-02-28T00:38:32;8.63;;;2.70;;
13683;SDS011;6914;53.552;9.908;2023-02-28T00:40:59;2.50;;;1.93;;
13683;SDS011;6914;53.552;9.908;2023-02-28T00:43:29;6.23;;;2.30;;
13683;SDS011;6914;53.552;9.908;2023-02-28T00:45:57;3.10;;;2.33;;
13683;SDS011;6914;53.552;9.908;2023-02-28T00:48:25;3.37;;;1.97;;
13683;SDS011;6914;53.552;9.908;2023-02-28T00:50:52;4.90;;;2.30;;
13683;SDS011;6914;53.552;9.908;2023-02-28T00:53:18;2.50;;;2.30;;
13683;SDS011;6914;53.552;9.908;2023-02-28T00:55:45;3.73;;;2.50;;
13683;SDS011;6914;53.552;9.908;2023-02-28T00:58:14;8.30;;;2.20;;
13683;SDS011;6914;53.552;9.908;2023-02-28T01:00:41;4.63;;;2.03;;
13683;SDS011;6914;53.552;9.908;2023-02-28T01:03:08;2.90;;;2.40;;
13683;SDS011;6914;53.552;9.908;2023-02-28T01:05:36;2.70;;;2.03;;
13683;SDS011;6914;53.552;9.908;2023-02-28T01:08:03;3.67;;;2.10;;
13683;SDS011;6914;53.552;9.908;2023-02-28T01:10:31;4.73;;;2.70;;
13683;SDS011;6914;53.552;9.908;2023-02-28T01:12:58;2.63;;;2.27;;
13683;SDS011;6914;53.552;9.908;2023-02-28T01:15:25;4.80;;;3.60;;
13683;SDS011;6914;53.552;9.908;2023-02-28T01:17:51;3.13;;;2.93;;
13683;SDS011;6914;53.552;9.908;2023-02-28T01:20:18;4.97;;;2.77;;
13683;SDS011;6914;53.552;9.908;2023-02-28T01:22:48;10.43;;;2.60;;
13683;SDS011;6914;53.552;9.908;2023-02-28T01:25:14;3.20;;;2.53;;
13683;SDS011;6914;53.552;9.908;2023-02-28T01:27:41;5.10;;;2.77;;
13683;SDS011;6914;53.552;9.908;2023-02-28T01:30:10;6.83;;;2.73;;
13683;SDS011;6914;53.552;9.908;2023-02-28T01:32:37;12.57;;;3.83;;
13683;SDS011;6914;53.552;9.908;2023-02-28T01:35:05;3.33;;;3.03;;
13683;SDS011;6914;53.552;9.908;2023-02-28T01:37:31;2.40;;;2.20;;
13683;SDS011;6914;53.552;9.908;2023-02-28T01:39:59;4.73;;;2.27;;
13683;SDS011;6914;53.552;9.908;2023-02-28T01:42:26;3.83;;;2.73;;
13683;SDS011;6914;53.552;9.908;2023-02-28T01:44:55;4.90;;;2.90;;
13683;SDS011;6914;53.552;9.908;2023-02-28T01:47:28;3.73;;;3.43;;
13683;SDS011;6914;53.552;9.908;2023-02-28T01:49:58;3.90;;;2.97;;
13683;SDS011;6914;53.552;9.908;2023-02-28T01:52:28;7.17;;;3.00;;
13683;SDS011;6914;53.552;9.908;2023-02-28T01:54:56;8.60;;;3.83;;
13683;SDS011;6914;53.552;9.908;2023-02-28T01:57:28;7.80;;;3.53;;
13683;SDS011;6914;53.552;9.908;2023-02-28T02:00:04;5.63;;;3.07;;
13683;SDS011;6914;53.552;9.908;2023-02-28T02:02:34;6.87;;;3.60;;
13683;SDS011;6914;53.552;9.908;2023-02-28T02:05:04;3.90;;;3.07;;
13683;SDS011;6914;53.552;9.908;2023-02-28T02:07:34;5.17;;;3.50;;
13683;SDS011;6914;53.552;9.908;2023-02-28T02:10:05;5.93;;;4.10;;
13683;SDS011;6914;53.552;9.908;2023-02-28T02:12:43;3.87;;;3.57;;
13683;SDS011;6914;53.552;9.908;2023-02-28T02:15:32;6.20;;;3.60;;
13683;SDS011;6914;53.552;9.908;2023-02-28T02:18:04;8.73;;;3.53;;
13683;SDS011;6914;53.552;9.908;2023-02-28T02:20:54;4.50;;;3.73;;
13683;SDS011;6914;53.552;9.908;2023-02-28T02:23:46;5.10;;;3.73;;
13683;SDS011;6914;53.552;9.908;2023-02-28T02:29:35;5.63;;;3.40;;
13683;SDS011;6914;53.552;9.908;2023-02-28T02:32:35;7.30;;;4.20;;
13683;SDS011;6914;53.552;9.908;2023-02-28T02:35:13;5.03;;;3.43;;
13683;SDS011;6914;53.552;9.908;2023-02-28T02:37:43;4.53;;;3.80;;
13683;SDS011;6914;53.552;9.908;2023-02-28T02:40:18;6.37;;;3.80;;
13683;SDS011;6914;53.552;9.908;2023-02-28T02:42:49;6.70;;;3.43;;
13683;SDS011;6914;53.552;9.908;2023-02-28T02:45:23;9.43;;;5.07;;
13683;SDS011;6914;53.552;9.908;2023-02-28T02:48:00;11.53;;;4.43;;
13683;SDS011;6914;53.552;9.908;2023-02-28T02:50:31;4.87;;;3.60;;
13683;SDS011;6914;53.552;9.908;2023-02-28T02:53:03;8.93;;;4.43;;
13683;SDS011;6914;53.552;9.908;2023-02-28T02:55:33;6.60;;;4.47;;
13683;SDS011;6914;53.552;9.908;2023-02-28T02:58:03;6.00;;;4.37;;
13683;SDS011;6914;53.552;9.908;2023-02-28T03:00:34;8.37;;;4.43;;
13683;SDS011;6914;53.552;9.908;2023-02-28T03:03:05;11.43;;;4.33;;
13683;SDS011;6914;53.552;9.908;2023-02-28T03:05:38;5.17;;;3.50;;
13683;SDS011;6914;53.552;9.908;2023-02-28T03:08:08;8.17;;;3.67;;
13683;SDS011;6914;53.552;9.908;2023-02-28T03:10:36;3.83;;;3.63;;
13683;SDS011;6914;53.552;9.908;2023-02-28T03:13:13;4.60;;;4.20;;
13683;SDS011;6914;53.552;9.908;2023-02-28T03:16:04;11.23;;;4.90;;
13683;SDS011;6914;53.552;9.908;2023-02-28T03:18:40;8.07;;;5.67;;
13683;SDS011;6914;53.552;9.908;2023-02-28T03:21:18;5.93;;;4.90;;
13683;SDS011;6914;53.552;9.908;2023-02-28T03:23:53;6.97;;;4.30;;
13683;SDS011;6914;53.552;9.908;2023-02-28T03:26:27;5.33;;;4.77;;
13683;SDS011;6914;53.552;9.908;2023-02-28T03:28:58;6.27;;;5.13;;
13683;SDS011;6914;53.552;9.908;2023-02-28T03:31:32;12.90;;;5.50;;
13683;SDS011;6914;53.552;9.908;2023-02-28T03:34:04;11.10;;;4.53;;
13683;SDS011;6914;53.552;9.908;2023-02-28T03:36:37;5.07;;;4.53;;
13683;SDS011;6914;53.552;9.908;2023-02-28T03:39:09;15.20;;;5.40;;
13683;SDS011;6914;53.552;9.908;2023-02-28T03:41:41;8.97;;;5.30;;
13683;SDS011;6914;53.552;9.908;2023-02-28T03:44:13;6.03;;;5.40;;
13683;SDS011;6914;53.552;9.908;2023-02-28T03:46:45;13.47;;;6.40;;
13683;SDS011;6914;53.552;9.908;2023-02-28T03:49:16;9.80;;;5.43;;
13683;SDS011;6914;53.552;9.908;2023-02-28T03:51:48;8.40;;;5.13;;
13683;SDS011;6914;53.552;9.908;2023-02-28T03:54:19;12.27;;;5.50;;
13683;SDS011;6914;53.552;9.908;2023-02-28T03:56:51;10.30;;;6.17;;
13683;SDS011;6914;53.552;9.908;2023-02-28T03:59:27;23.03;;;6.10;;
13683;SDS011;6914;53.552;9.908;2023-02-28T04:01:58;8.43;;;5.50;;
13683;SDS011;6914;53.552;9.908;2023-02-28T04:04:25;9.57;;;6.20;;
13683;SDS011;6914;53.552;9.908;2023-02-28T04:07:02;18.63;;;5.70;;
13683;SDS011;6914;53.552;9.908;2023-02-28T04:09:31;14.10;;;6.30;;
13683;SDS011;6914;53.552;9.908;2023-02-28T04:11:58;9.77;;;5.33;;
13683;SDS011;6914;53.552;9.908;2023-02-28T04:14:25;10.43;;;6.50;;
13683;SDS011;6914;53.552;9.908;2023-02-28T04:16:52;12.67;;;5.87;;
13683;SDS011;6914;53.552;9.908;2023-02-28T04:19:25;8.73;;;5.70;;
13683;SDS011;6914;53.552;9.908;2023-02-28T04:21:52;6.57;;;5.90;;
13683;SDS011;6914;53.552;9.908;2023-02-28T04:24:21;6.67;;;6.07;;
13683;SDS011;6914;53.552;9.908;2023-02-28T04:26:50;7.17;;;6.47;;
13683;SDS011;6914;53.552;9.908;2023-02-28T04:29:19;19.90;;;6.97;;
13683;SDS011;6914;53.552;9.908;2023-02-28T04:31:48;8.00;;;5.40;;
13683;SDS011;6914;53.552;9.908;2023-02-28T04:34:14;8.80;;;6.30;;
13683;SDS011;6914;53.552;9.908;2023-02-28T04:36:43;9.43;;;6.80;;
13683;SDS011;6914;53.552;9.908;2023-02-28T04:39:10;6.50;;;5.47;;
13683;SDS011;6914;53.552;9.908;2023-02-28T04:41:39;5.57;;;5.07;;
13683;SDS011;6914;53.552;9.908;2023-02-28T04:44:05;9.50;;;7.23;;
13683;SDS011;6914;53.552;9.908;2023-02-28T04:46:32;10.20;;;6.70;;
13683;SDS011;6914;53.552;9.908;2023-02-28T04:48:59;6.80;;;6.20;;
13683;SDS011;6914;53.552;9.908;2023-02-28T04:51:25;7.27;;;6.10;;
13683;SDS011;6914;53.552;9.908;2023-02-28T04:53:52;12.60;;;6.07;;
13683;SDS011;6914;53.552;9.908;2023-02-28T04:56:19;11.33;;;7.20;;
13683;SDS011;6914;53.552;9.908;2023-02-28T04:58:48;9.40;;;6.17;;
13683;SDS011;6914;53.552;9.908;2023-02-28T05:01:17;11.40;;;7.57;;
13683;SDS011;6914;53.552;9.908;2023-02-28T05:03:45;14.80;;;7.27;;
13683;SDS011;6914;53.552;9.908;2023-02-28T05:06:12;11.37;;;8.03;;
13683;SDS011;6914;53.552;9.908;2023-02-28T05:08:40;13.50;;;6.40;;
13683;SDS011;6914;53.552;9.908;2023-02-28T05:11:08;12.20;;;6.70;;
13683;SDS011;6914;53.552;9.908;2023-02-28T05:13:40;13.50;;;6.63;;
13683;SDS011;6914;53.552;9.908;2023-02-28T05:16:08;9.20;;;6.03;;
13683;SDS011;6914;53.552;9.908;2023-02-28T05:18:35;17.07;;;6.30;;
13683;SDS011;6914;53.552;9.908;2023-02-28T05:21:02;15.53;;;6.40;;
13683;SDS011;6914;53.552;9.908;2023-02-28T05:23:29;19.87;;;7.30;;
13683;SDS011;6914;53.552;9.908;2023-02-28T05:25:56;27.17;;;7.57;;
13683;SDS011;6914;53.552;9.908;2023-02-28T05:28:25;16.83;;;7.73;;
13683;SDS011;6914;53.552;9.908;2023-02-28T05:30:52;15.83;;;7.73;;
13683;SDS011;6914;53.552;9.908;2023-02-28T05:33:20;7.70;;;7.00;;
13683;SDS011;6914;53.552;9.908;2023-02-28T05:35:47;16.47;;;6.90;;
13683;SDS011;6914;53.552;9.908;2023-02-28T05:38:14;8.90;;;6.23;;
13683;SDS011;6914;53.552;9.908;2023-02-28T05:40:41;9.70;;;6.70;;
13683;SDS011;6914;53.552;9.908;2023-02-28T05:43:09;11.37;;;6.57;;
13683;SDS011;6914;53.552;9.908;2023-02-28T05:45:37;14.30;;;6.97;;
13683;SDS011;6914;53.552;9.908;2023-02-28T05:48:04;12.00;;;7.23;;
13683;SDS011;6914;53.552;9.908;2023-02-28T05:50:32;8.40;;;6.90;;
13683;SDS011;6914;53.552;9.908;2023-02-28T05:52:59;24.83;;;6.90;;
13683;SDS011;6914;53.552;9.908;2023-02-28T05:55:26;7.63;;;6.40;;
13683;SDS011;6914;53.552;9.908;2023-02-28T05:57:53;14.23;;;6.93;;
13683;SDS011;6914;53.552;9.908;2023-02-28T06:00:21;18.77;;;6.73;;
13683;SDS011;6914;53.552;9.908;2023-02-28T06:02:48;22.13;;;8.20;;
13683;SDS011;6914;53.552;9.908;2023-02-28T06:05:16;17.83;;;8.47;;
13683;SDS011;6914;53.552;9.908;2023-02-28T06:07:45;10.00;;;7.23;;
13683;SDS011;6914;53.552;9.908;2023-02-28T06:10:12;9.80;;;7.53;;
13683;SDS011;6914;53.552;9.908;2023-02-28T06:12:40;8.37;;;6.83;;
13683;SDS011;6914;53.552;9.908;2023-02-28T06:15:09;12.63;;;8.33;;
13683;SDS011;6914;53.552;9.908;2023-02-28T06:17:38;7.23;;;6.53;;
13683;SDS011;6914;53.552;9.908;2023-02-28T06:20:05;10.60;;;7.10;;
13683;SDS011;6914;53.552;9.908;2023-02-28T06:22:35;10.90;;;8.30;;
13683;SDS011;6914;53.552;9.908;2023-02-28T06:25:04;22.80;;;9.10;;
13683;SDS011;6914;53.552;9.908;2023-02-28T06:27:32;15.23;;;9.97;;
13683;SDS011;6914;53.552;9.908;2023-02-28T06:29:59;15.83;;;8.23;;
13683;SDS011;6914;53.552;9.908;2023-02-28T06:32:26;13.73;;;8.33;;
13683;SDS011;6914;53.552;9.908;2023-02-28T06:34:53;13.50;;;7.97;;
13683;SDS011;6914;53.552;9.908;2023-02-28T06:37:23;25.60;;;9.33;;
13683;SDS011;6914;53.552;9.908;2023-02-28T06:39:51;18.53;;;8.07;;
13683;SDS011;6914;53.552;9.908;2023-02-28T06:42:19;7.07;;;6.43;;
13683;SDS011;6914;53.552;9.908;2023-02-28T06:44:49;12.83;;;8.10;;
13683;SDS011;6914;53.552;9.908;2023-02-28T06:47:17;17.17;;;9.43;;
13683;SDS011;6914;53.552;9.908;2023-02-28T06:49:44;11.83;;;9.87;;
13683;SDS011;6914;53.552;9.908;2023-02-28T06:52:11;22.70;;;9.77;;
13683;SDS011;6914;53.552;9.908;2023-02-28T06:54:37;14.70;;;8.10;;
13683;SDS011;6914;53.552;9.908;2023-02-28T06:57:04;13.90;;;9.40;;
13683;SDS011;6914;53.552;9.908;2023-02-28T06:59:32;15.73;;;8.73;;
13683;SDS011;6914;53.552;9.908;2023-02-28T07:02:03;9.37;;;8.07;;
13683;SDS011;6914;53.552;9.908;2023-02-28T07:04:31;16.57;;;10.97;;
13683;SDS011;6914;53.552;9.908;2023-02-28T07:06:58;12.23;;;9.10;;
13683;SDS011;6914;53.552;9.908;2023-02-28T07:09:28;16.43;;;10.77;;
13683;SDS011;6914;53.552;9.908;2023-02-28T07:11:55;18.53;;;9.10;;
13683;SDS011;6914;53.552;9.908;2023-02-28T07:14:22;28.13;;;9.10;;
13683;SDS011;6914;53.552;9.908;2023-02-28T07:16:50;16.10;;;9.60;;
13683;SDS011;6914;53.552;9.908;2023-02-28T07:19:17;21.80;;;9.67;;
13683;SDS011;6914;53.552;9.908;2023-02-28T07:21:44;16.17;;;9.70;;
13683;SDS011;6914;53.552;9.908;2023-02-28T07:24:11;15.73;;;10.00;;
13683;SDS011;6914;53.552;9.908;2023-02-28T07:26:40;14.13;;;10.70;;
13683;SDS011;6914;53.552;9.908;2023-02-28T07:29:07;22.90;;;10.10;;
13683;SDS011;6914;53.552;9.908;2023-02-28T07:31:34;29.93;;;10.50;;
13683;SDS011;6914;53.552;9.908;2023-02-28T07:34:02;20.70;;;10.03;;
13683;SDS011;6914;53.552;9.908;2023-02-28T07:36:29;19.00;;;9.33;;
13683;SDS011;6914;53.552;9.908;2023-02-28T07:38:57;16.00;;;9.00;;
13683;SDS011;6914;53.552;9.908;2023-02-28T07:41:29;15.60;;;9.90;;
13683;SDS011;6914;53.552;9.908;2023-02-28T07:43:59;9.97;;;8.13;;
13683;SDS011;6914;53.552;9.908;2023-02-28T07:46:28;15.00;;;9.00;;
13683;SDS011;6914;53.552;9.908;2023-02-28T07:49:00;23.17;;;6.80;;
13683;SDS011;6914;53.552;9.908;2023-02-28T07:51:29;10.97;;;5.13;;
13683;SDS011;6914;53.552;9.908;2023-02-28T07:53:56;5.10;;;4.70;;
13683;SDS011;6914;53.552;9.908;2023-02-28T07:56:25;6.73;;;4.50;;
13683;SDS011;6914;53.552;9.908;2023-02-28T07:58:52;11.83;;;4.57;;
13683;SDS011;6914;53.552;9.908;2023-02-28T08:01:19;26.13;;;4.60;;
13683;SDS011;6914;53.552;9.908;2023-02-28T08:03:46;4.67;;;4.23;;
13683;SDS011;6914;53.552;9.908;2023-02-28T08:06:17;4.50;;;4.20;;
13683;SDS011;6914;53.552;9.908;2023-02-28T08:08:46;6.30;;;4.10;;
13683;SDS011;6914;53.552;9.908;2023-02-28T08:11:14;5.07;;;3.53;;
13683;SDS011;6914;53.552;9.908;2023-02-28T08:13:42;2.90;;;2.70;;
13683;SDS011;6914;53.552;9.908;2023-02-28T08:16:10;5.23;;;3.30;;
13683;SDS011;6914;53.552;9.908;2023-02-28T08:18:39;3.47;;;3.00;;
13683;SDS011;6914;53.552;9.908;2023-02-28T08:21:06;2.90;;;2.80;;
13683;SDS011;6914;53.552;9.908;2023-02-28T08:23:33;2.33;;;2.23;;
13683;SDS011;6914;53.552;9.908;2023-02-28T08:26:01;8.20;;;2.30;;
13683;SDS011;6914;53.552;9.908;2023-02-28T08:28:29;2.83;;;2.47;;
13683;SDS011;6914;53.552;9.908;2023-02-28T08:30:56;4.30;;;2.50;;
13683;SDS011;6914;53.552;9.908;2023-02-28T08:33:23;5.37;;;2.87;;
13683;SDS011;6914;53.552;9.908;2023-02-28T08:35:52;2.83;;;2.73;;
13683;SDS011;6914;53.552;9.908;2023-02-28T08:38:20;6.10;;;3.67;;
13683;SDS011;6914;53.552;9.908;2023-02-28T08:40:48;3.90;;;3.57;;
13683;SDS011;6914;53.552;9.908;2023-02-28T08:43:17;4.13;;;3.73;;
13683;SDS011;6914;53.552;9.908;2023-02-28T08:45:44;3.77;;;3.53;;
13683;SDS011;6914;53.552;9.908;2023-02-28T08:48:10;3.70;;;3.40;;
13683;SDS011;6914;53.552;9.908;2023-02-28T08:50:38;3.00;;;2.80;;
13683;SDS011;6914;53.552;9.908;2023-02-28T08:53:05;5.83;;;3.43;;
13683;SDS011;6914;53.552;9.908;2023-02-28T08:55:31;12.43;;;2.97;;
13683;SDS011;6914;53.552;9.908;2023-02-28T08:58:01;10.27;;;3.13;;
13683;SDS011;6914;53.552;9.908;2023-02-28T09:00:29;3.93;;;2.27;;
13683;SDS011;6914;53.552;9.908;2023-02-28T09:02:56;2.20;;;2.00;;
13683;SDS011;6914;53.552;9.908;2023-02-28T09:05:28;3.20;;;2.50;;
13683;SDS011;6914;53.552;9.908;2023-02-28T09:07:55;2.80;;;2.60;;
13683;SDS011;6914;53.552;9.908;2023-02-28T09:10:22;3.77;;;2.67;;
13683;SDS011;6914;53.552;9.908;2023-02-28T09:12:50;2.60;;;2.30;;
13683;SDS011;6914;53.552;9.908;2023-02-28T09:15:18;5.90;;;2.13;;
13683;SDS011;6914;53.552;9.908;2023-02-28T09:17:46;2.40;;;2.10;;
13683;SDS011;6914;53.552;9.908;2023-02-28T09:20:13;4.13;;;2.03;;
13683;SDS011;6914;53.552;9.908;2023-02-28T09:22:39;7.03;;;1.70;;
13683;SDS011;6914;53.552;9.908;2023-02-28T09:25:06;1.90;;;1.80;;
13683;SDS011;6914;53.552;9.908;2023-02-28T09:27:33;1.70;;;1.60;;
13683;SDS011;6914;53.552;9.908;2023-02-28T09:30:01;2.13;;;1.47;;
13683;SDS011;6914;53.552;9.908;2023-02-28T09:32:27;1.73;;;1.60;;
13683;SDS011;6914;53.552;9.908;2023-02-28T09:34:56;2.60;;;2.00;;
13683;SDS011;6914;53.552;9.908;2023-02-28T09:37:23;6.03;;;1.87;;
13683;SDS011;6914;53.552;9.908;2023-02-28T09:39:56;2.10;;;1.83;;
13683;SDS011;6914;53.552;9.908;2023-02-28T09:42:25;1.73;;;1.27;;
13683;SDS011;6914;53.552;9.908;2023-02-28T09:44:57;1.90;;;1.80;;
13683;SDS011;6914;53.552;9.908;2023-02-28T09:47:33;1.47;;;1.10;;
13683;SDS011;6914;53.552;9.908;2023-02-28T09:50:15;2.80;;;1.00;;
13683;SDS011;6914;53.552;9.908;2023-02-28T09:52:58;0.93;;;0.93;;
13683;SDS011;6914;53.552;9.908;2023-02-28T09:55:28;1.00;;;0.90;;
13683;SDS011;6914;53.552;9.908;2023-02-28T09:58:01;0.73;;;0.73;;
13683;SDS011;6914;53.552;9.908;2023-02-28T10:00:30;1.00;;;1.00;;
13683;SDS011;6914;53.552;9.908;2023-02-28T10:03:04;6.53;;;1.00;;
13683;SDS011;6914;53.552;9.908;2023-02-28T10:05:53;2.10;;;1.00;;
13683;SDS011;6914;53.552;9.908;2023-02-28T10:08:29;1.50;;;0.80;;
13683;SDS011;6914;53.552;9.908;2023-02-28T10:11:01;1.10;;;1.00;;
13683;SDS011;6914;53.552;9.908;2023-02-28T10:13:33;2.10;;;1.20;;
13683;SDS011;6914;53.552;9.908;2023-02-28T10:16:03;5.17;;;1.00;;
13683;SDS011;6914;53.552;9.908;2023-02-28T10:18:37;2.30;;;1.13;;
13683;SDS011;6914;53.552;9.908;2023-02-28T10:21:11;0.67;;;0.67;;
13683;SDS011;6914;53.552;9.908;2023-02-28T10:23:44;1.90;;;0.90;;
13683;SDS011;6914;53.552;9.908;2023-02-28T10:26:13;1.77;;;0.73;;
13683;SDS011;6914;53.552;9.908;2023-02-28T10:28:42;1.97;;;1.20;;
13683;SDS011;6914;53.552;9.908;2023-02-28T10:31:09;1.47;;;1.30;;
13683;SDS011;6914;53.552;9.908;2023-02-28T10:33:41;1.50;;;1.40;;
13683;SDS011;6914;53.552;9.908;2023-02-28T10:36:09;1.43;;;1.00;;
13683;SDS011;6914;53.552;9.908;2023-02-28T10:38:42;3.87;;;2.07;;
13683;SDS011;6914;53.552;9.908;2023-02-28T10:41:11;2.77;;;1.70;;
13683;SDS011;6914;53.552;9.908;2023-02-28T10:43:39;2.00;;;1.90;;
13683;SDS011;6914;53.552;9.908;2023-02-28T10:46:11;1.80;;;1.60;;
13683;SDS011;6914;53.552;9.908;2023-02-28T10:48:59;3.93;;;1.70;;
13683;SDS011;6914;53.552;9.908;2023-02-28T10:51:36;9.43;;;1.60;;
13683;SDS011;6914;53.552;9.908;2023-02-28T10:54:04;1.73;;;1.63;;
13683;SDS011;6914;53.552;9.908;2023-02-28T10:56:31;2.93;;;1.73;;
13683;SDS011;6914;53.552;9.908;2023-02-28T10:59:03;1.80;;;1.23;;
13683;SDS011;6914;53.552;9.908;2023-02-28T11:01:46;4.43;;;1.90;;
13683;SDS011;6914;53.552;9.908;2023-02-28T11:04:18;4.90;;;1.90;;
13683;SDS011;6914;53.552;9.908;2023-02-28T11:06:48;3.97;;;1.70;;
13683;SDS011;6914;53.552;9.908;2023-02-28T11:09:27;5.10;;;1.50;;
13683;SDS011;6914;53.552;9.908;2023-02-28T11:11:55;1.87;;;1.47;;
13683;SDS011;6914;53.552;9.908;2023-02-28T11:14:31;2.17;;;2.07;;
13683;SDS011;6914;53.552;9.908;2023-02-28T11:17:13;2.10;;;2.00;;
13683;SDS011;6914;53.552;9.908;2023-02-28T11:19:46;5.60;;;1.53;;
13683;SDS011;6914;53.552;9.908;2023-02-28T11:22:19;3.00;;;1.37;;
13683;SDS011;6914;53.552;9.908;2023-02-28T11:24:48;5.07;;;1.60;;
13683;SDS011;6914;53.552;9.908;2023-02-28T11:27:24;4.07;;;1.40;;
13683;SDS011;6914;53.552;9.908;2023-02-28T11:29:52;2.67;;;1.30;;
13683;SDS011;6914;53.552;9.908;2023-02-28T11:32:20;1.73;;;1.63;;
13683;SDS011;6914;53.552;9.908;2023-02-28T11:35:00;1.63;;;1.53;;
13683;SDS011;6914;53.552;9.908;2023-02-28T11:37:31;2.43;;;1.50;;
13683;SDS011;6914;53.552;9.908;2023-02-28T11:40:08;3.17;;;1.77;;
13683;SDS011;6914;53.552;9.908;2023-02-28T11:42:49;1.60;;;1.50;;
13683;SDS011;6914;53.552;9.908;2023-02-28T11:48:22;3.73;;;1.83;;
13683;SDS011;6914;53.552;9.908;2023-02-28T11:51:04;2.07;;;1.97;;
13683;SDS011;6914;53.552;9.908;2023-02-28T11:53:53;2.50;;;1.67;;
13683;SDS011;6914;53.552;9.908;2023-02-28T11:56:43;1.90;;;1.80;;
13683;SDS011;6914;53.552;9.908;2023-02-28T11:59:16;3.10;;;2.33;;
13683;SDS011;6914;53.552;9.908;2023-02-28T12:02:02;2.97;;;2.40;;
13683;SDS011;6914;53.552;9.908;2023-02-28T12:04:42;2.20;;;2.10;;
13683;SDS011;6914;53.552;9.908;2023-02-28T12:07:21;2.53;;;2.17;;
13683;SDS011;6914;53.552;9.908;2023-02-28T12:09:58;2.83;;;2.63;;
13683;SDS011;6914;53.552;9.908;2023-02-28T12:12:37;1.93;;;1.73;;
13683;SDS011;6914;53.552;9.908;2023-02-28T12:15:28;4.47;;;1.83;;
13683;SDS011;6914;53.552;9.908;2023-02-28T12:18:18;9.77;;;2.37;;
13683;SDS011;6914;53.552;9.908;2023-02-28T12:21:05;3.70;;;2.00;;
13683;SDS011;6914;53.552;9.908;2023-02-28T12:23:51;5.40;;;1.73;;
13683;SDS011;6914;53.552;9.908;2023-02-28T12:26:34;22.47;;;2.30;;
13683;SDS011;6914;53.552;9.908;2023-02-28T12:29:04;2.53;;;2.23;;
13683;SDS011;6914;53.552;9.908;2023-02-28T12:31:40;1.90;;;1.70;;
13683;SDS011;6914;53.552;9.908;2023-02-28T12:34:11;2.10;;;1.97;;
13683;SDS011;6914;53.552;9.908;2023-02-28T12:36:45;9.80;;;2.10;;
13683;SDS011;6914;53.552;9.908;2023-02-28T12:39:15;3.00;;;2.60;;
13683;SDS011;6914;53.552;9.908;2023-02-28T12:41:48;3.43;;;3.13;;
13683;SDS011;6914;53.552;9.908;2023-02-28T12:44:20;2.33;;;2.10;;
13683;SDS011;6914;53.552;9.908;2023-02-28T12:46:55;5.37;;;2.60;;
13683;SDS011;6914;53.552;9.908;2023-02-28T12:49:27;3.33;;;2.93;;
13683;SDS011;6914;53.552;9.908;2023-02-28T12:51:59;7.03;;;2.50;;
13683;SDS011;6914;53.552;9.908;2023-02-28T12:54:29;5.47;;;2.90;;
13683;SDS011;6914;53.552;9.908;2023-02-28T12:57:06;6.10;;;2.60;;
13683;SDS011;6914;53.552;9.908;2023-02-28T12:59:37;4.40;;;2.33;;
13683;SDS011;6914;53.552;9.908;2023-02-28T13:05:29;5.70;;;2.87;;
13683;SDS011;6914;53.552;9.908;2023-02-28T13:11:03;2.77;;;2.53;;
13683;SDS011;6914;53.552;9.908;2023-02-28T13:13:31;6.50;;;2.90;;
13683;SDS011;6914;53.552;9.908;2023-02-28T13:15:59;8.07;;;2.63;;
13683;SDS011;6914;53.552;9.908;2023-02-28T13:18:34;4.80;;;3.00;;
13683;SDS011;6914;53.552;9.908;2023-02-28T13:21:04;4.73;;;2.47;;
13683;SDS011;6914;53.552;9.908;2023-02-28T13:23:40;2.60;;;2.40;;
13683;SDS011;6914;53.552;9.908;2023-02-28T13:29:34;2.77;;;2.57;;
13683;SDS011;6914;53.552;9.908;2023-02-28T13:35:14;2.20;;;2.10;;
13683;SDS011;6914;53.552;9.908;2023-02-28T13:38:09;2.07;;;1.70;;
13683;SDS011;6914;53.552;9.908;2023-02-28T13:40:42;10.50;;;2.90;;
13683;SDS011;6914;53.552;9.908;2023-02-28T13:43:09;4.13;;;2.20;;
13683;SDS011;6914;53.552;9.908;2023-02-28T13:45:37;2.77;;;2.57;;
13683;SDS011;6914;53.552;9.908;2023-02-28T13:48:04;2.47;;;2.37;;
13683;SDS011;6914;53.552;9.908;2023-02-28T13:50:43;2.77;;;2.50;;
13683;SDS011;6914;53.552;9.908;2023-02-28T13:56:06;2.40;;;2.20;;
13683;SDS011;6914;53.552;9.908;2023-02-28T13:58:48;8.00;;;2.37;;
13683;SDS011;6914;53.552;9.908;2023-02-28T14:01:27;3.00;;;2.63;;
13683;SDS011;6914;53.552;9.908;2023-02-28T14:04:29;3.03;;;2.73;;
13683;SDS011;6914;53.552;9.908;2023-02-28T14:07:16;4.90;;;2.80;;
13683;SDS011;6914;53.552;9.908;2023-02-28T14:09:46;2.97;;;2.70;;
13683;SDS011;6914;53.552;9.908;2023-02-28T14:15:39;9.83;;;2.70;;
13683;SDS011;6914;53.552;9.908;2023-02-28T14:18:18;2.60;;;2.00;;
13683;SDS011;6914;53.552;9.908;2023-02-28T14:20:48;3.10;;;2.60;;
13683;SDS011;6914;53.552;9.908;2023-02-28T14:23:21;2.40;;;2.20;;
13683;SDS011;6914;53.552;9.908;2023-02-28T14:25:59;2.47;;;2.30;;
13683;SDS011;6914;53.552;9.908;2023-02-28T14:28:44;6.07;;;2.50;;
13683;SDS011;6914;53.552;9.908;2023-02-28T14:31:23;2.97;;;2.77;;
13683;SDS011;6914;53.552;9.908;2023-02-28T14:34:03;5.53;;;2.90;;
13683;SDS011;6914;53.552;9.908;2023-02-28T14:36:47;3.00;;;2.10;;
13683;SDS011;6914;53.552;9.908;2023-02-28T14:39:15;8.67;;;3.00;;
13683;SDS011;6914;53.552;9.908;2023-02-28T14:41:45;7.13;;;2.53;;
13683;SDS011;6914;53.552;9.908;2023-02-28T14:44:13;2.80;;;2.60;;
13683;SDS011;6914;53.552;9.908;2023-02-28T14:46:42;3.40;;;2.50;;
13683;SDS011;6914;53.552;9.908;2023-02-28T14:49:15;4.80;;;3.03;;
13683;SDS011;6914;53.552;9.908;2023-02-28T14:52:05;3.30;;;2.33;;
13683;SDS011;6914;53.552;9.908;2023-02-28T14:54:34;2.80;;;2.60;;
13683;SDS011;6914;53.552;9.908;2023-02-28T14:57:04;3.30;;;2.63;;
13683;SDS011;6914;53.552;9.908;2023-02-28T14:59:32;2.40;;;2.20;;
13683;SDS011;6914;53.552;9.908;2023-02-28T15:02:14;2.30;;;2.10;;
13683;SDS011;6914;53.552;9.908;2023-02-28T15:04:53;3.13;;;2.80;;
13683;SDS011;6914;53.552;9.908;2023-02-28T15:07:21;5.73;;;2.87;;
13683;SDS011;6914;53.552;9.908;2023-02-28T15:10:13;2.97;;;2.50;;
13683;SDS011;6914;53.552;9.908;2023-02-28T15:12:45;2.70;;;2.27;;
13683;SDS011;6914;53.552;9.908;2023-02-28T15:15:17;3.37;;;3.07;;
13683;SDS011;6914;53.552;9.908;2023-02-28T15:17:46;7.67;;;2.40;;
13683;SDS011;6914;53.552;9.908;2023-02-28T15:20:18;8.67;;;2.60;;
13683;SDS011;6914;53.552;9.908;2023-02-28T15:22:46;2.37;;;2.27;;
13683;SDS011;6914;53.552;9.908;2023-02-28T15:25:17;8.27;;;2.50;;
13683;SDS011;6914;53.552;9.908;2023-02-28T15:27:47;4.67;;;2.63;;
13683;SDS011;6914;53.552;9.908;2023-02-28T15:30:17;7.73;;;2.50;;
13683;SDS011;6914;53.552;9.908;2023-02-28T15:33:01;2.97;;;2.77;;
13683;SDS011;6914;53.552;9.908;2023-02-28T15:35:34;3.37;;;3.07;;
13683;SDS011;6914;53.552;9.908;2023-02-28T15:38:12;8.83;;;2.73;;
13683;SDS011;6914;53.552;9.908;2023-02-28T15:40:42;5.03;;;2.60;;
13683;SDS011;6914;53.552;9.908;2023-02-28T15:43:13;10.50;;;3.20;;
13683;SDS011;6914;53.552;9.908;2023-02-28T15:45:44;3.10;;;2.80;;
13683;SDS011;6914;53.552;9.908;2023-02-28T15:48:14;3.37;;;2.30;;